createdAt,value
2018-09-12T00:00:24.600Z,7.00
2018-09-12T00:03:17.442Z,7.00
2018-09-12T00:06:27.077Z,7.00
2018-09-12T00:12:40.448Z,6.00
2018-09-12T00:15:15.589Z,7.00
2018-09-12T00:24:14.534Z,7.00
2018-09-12T00:27:22.372Z,6.50
2018-09-12T00:30:06.427Z,6.33
2018-09-12T00:32:52.374Z,6.33
2018-09-12T00:38:12.517Z,7.00
2018-09-12T00:40:50.253Z,6.00
2018-09-12T00:43:28.501Z,6.00
2018-09-12T00:46:07.639Z,6.67
2018-09-12T00:48:40.610Z,6.67
2018-09-12T00:51:14.358Z,6.00
2018-09-12T00:54:05.413Z,4.67
2018-09-12T00:56:43.029Z,5.67
2018-09-12T00:59:26.251Z,4.50
2018-09-12T01:02:13.807Z,3.33
2018-09-12T01:04:47.261Z,4.33
2018-09-12T01:07:27.350Z,4.00
2018-09-12T01:10:06.989Z,4.00
2018-09-12T01:12:41.204Z,5.20
2018-09-12T01:15:25.025Z,4.00
2018-09-12T01:18:06.788Z,6.00
2018-09-12T01:20:45.594Z,4.33
2018-09-12T01:26:48.641Z,4.33
2018-09-12T01:29:43.540Z,5.00
2018-09-12T01:32:21.963Z,4.67
2018-09-12T01:35:11.828Z,6.00
2018-09-12T01:38:03.964Z,6.33
2018-09-12T01:40:38.323Z,4.00
2018-09-12T01:43:20.116Z,4.00
2018-09-12T01:46:00.714Z,4.67
2018-09-12T01:48:42.981Z,6.60
2018-09-12T01:51:20.472Z,4.00
2018-09-12T01:53:54.672Z,4.00
2018-09-12T01:56:39.391Z,4.00
2018-09-12T01:59:13.423Z,6.00
2018-09-12T02:01:52.363Z,6.60
2018-09-12T02:07:38.944Z,4.00
2018-09-12T02:10:34.447Z,6.00
2018-09-12T02:13:10.575Z,6.00
2018-09-12T02:16:14.972Z,6.67
2018-09-12T02:18:55.498Z,6.00
2018-09-12T02:21:31.601Z,4.67
2018-09-12T02:24:11.477Z,6.00
2018-09-12T02:26:51.267Z,6.00
2018-09-12T02:29:28.832Z,6.00
2018-09-12T02:32:07.566Z,5.20
2018-09-12T02:34:52.699Z,5.33
2018-09-12T02:37:25.737Z,5.00
2018-09-12T02:40:07.137Z,5.80
2018-09-12T02:42:44.189Z,7.00
2018-09-12T02:45:18.645Z,6.00
2018-09-12T02:48:05.870Z,6.00
2018-09-12T02:56:45.028Z,5.80
2018-09-12T03:02:28.719Z,3.00
2018-09-12T03:05:10.319Z,5.33
2018-09-12T03:07:42.895Z,5.00
2018-09-12T03:10:18.981Z,6.00
2018-09-12T03:12:51.824Z,7.00
2018-09-12T03:15:33.658Z,6.00
2018-09-12T03:18:09.612Z,6.00
2018-09-12T03:20:49.673Z,6.00
2018-09-12T03:23:26.866Z,6.67
2018-09-12T03:26:01.468Z,6.00
2018-09-12T03:28:34.483Z,7.00
2018-09-12T03:31:15.541Z,6.75
2018-09-12T03:33:55.191Z,6.00
2018-09-12T03:36:27.125Z,6.33
2018-09-12T03:39:00.721Z,7.50
2018-09-12T03:41:46.546Z,5.33
2018-09-12T03:44:32.179Z,5.33
2018-09-12T03:47:11.298Z,5.25
2018-09-12T03:49:43.358Z,8.00
2018-09-12T03:52:43.491Z,6.67
2018-09-12T03:55:21.653Z,6.00
2018-09-12T03:57:51.730Z,8.67
2018-09-12T04:00:32.425Z,7.33
2018-09-12T04:03:03.478Z,9.00
2018-09-12T04:05:34.961Z,7.00
2018-09-12T04:08:05.401Z,6.33
2018-09-12T04:10:37.395Z,9.00
2018-09-12T04:13:15.154Z,6.67
2018-09-12T04:15:45.337Z,6.00
2018-09-12T04:18:16.760Z,6.67
2018-09-12T04:21:06.871Z,7.00
2018-09-12T04:23:37.889Z,6.33
2018-09-12T04:26:08.186Z,7.33
2018-09-12T04:28:37.589Z,6.00
2018-09-12T04:31:09.626Z,5.67
2018-09-12T04:33:40.619Z,6.00
2018-09-12T04:36:13.734Z,6.33
2018-09-12T04:38:46.389Z,7.00
2018-09-12T04:41:17.923Z,5.00
2018-09-12T04:43:49.060Z,7.00
2018-09-12T04:46:21.023Z,5.00
2018-09-12T04:48:57.336Z,5.00
2018-09-12T04:51:28.857Z,5.00
2018-09-12T04:53:59.515Z,6.00
2018-09-12T04:56:30.296Z,5.33
2018-09-12T04:59:00.600Z,5.00
2018-09-12T05:01:35.682Z,5.60
2018-09-12T05:04:07.895Z,6.33
2018-09-12T05:06:39.135Z,6.00
2018-09-12T05:09:11.514Z,6.00
2018-09-12T05:11:52.589Z,6.00
2018-09-12T05:14:22.784Z,6.33
2018-09-12T05:16:53.892Z,6.50
2018-09-12T05:19:24.252Z,6.33
2018-09-12T05:21:55.781Z,6.00
2018-09-12T05:24:28.094Z,6.33
2018-09-12T05:26:59.791Z,7.00
2018-09-12T05:29:31.076Z,7.00
2018-09-12T05:32:03.120Z,6.67
2018-09-12T05:34:42.484Z,7.00
2018-09-12T05:37:16.171Z,6.00
2018-09-12T05:39:48.576Z,6.33
2018-09-12T05:42:18.881Z,8.33
2018-09-12T05:44:57.708Z,7.00
2018-09-12T05:47:45.150Z,7.00
2018-09-12T05:50:17.640Z,6.00
2018-09-12T05:52:48.969Z,7.00
2018-09-12T05:55:20.403Z,8.67
2018-09-12T05:57:50.365Z,8.00
2018-09-12T06:00:23.525Z,7.67
2018-09-12T06:02:59.020Z,9.33
2018-09-12T06:05:29.110Z,9.00
2018-09-12T06:08:00.284Z,10.00
2018-09-12T06:10:32.489Z,10.00
2018-09-12T06:13:03.673Z,10.00
2018-09-12T06:15:33.084Z,9.00
2018-09-12T06:18:03.136Z,10.00
2018-09-12T06:20:36.495Z,11.00
2018-09-12T06:23:14.256Z,10.33
2018-09-12T06:25:47.022Z,11.33
2018-09-12T06:28:17.775Z,9.67
2018-09-12T06:30:49.911Z,11.00
2018-09-12T06:33:21.136Z,10.00
2018-09-12T06:35:51.268Z,11.67
2018-09-12T06:38:23.626Z,10.33
2018-09-12T06:40:54.372Z,11.67
2018-09-12T06:43:24.135Z,11.33
2018-09-12T06:45:54.000Z,9.67
2018-09-12T06:48:25.284Z,11.33
2018-09-12T06:50:56.543Z,10.00
2018-09-12T06:53:30.277Z,9.67
2018-09-12T06:56:01.403Z,9.33
2018-09-12T06:58:32.832Z,8.00
2018-09-12T07:01:05.459Z,8.00
2018-09-12T07:03:41.030Z,9.00
2018-09-12T07:06:14.469Z,9.33
2018-09-12T07:08:46.477Z,8.00
2018-09-12T07:11:17.769Z,8.67
2018-09-12T07:14:07.267Z,8.33
2018-09-12T07:16:45.441Z,8.83
2018-09-12T07:19:18.812Z,8.00
2018-09-12T07:21:50.805Z,8.00
2018-09-12T07:24:20.966Z,7.00
2018-09-12T07:26:50.393Z,8.00
2018-09-12T07:29:24.101Z,6.67
2018-09-12T07:31:58.624Z,8.00
2018-09-12T07:34:30.647Z,7.00
2018-09-12T07:37:02.201Z,6.33
2018-09-12T07:39:36.777Z,6.00
2018-09-12T07:42:10.624Z,6.80
2018-09-12T07:44:42.051Z,6.00
2018-09-12T07:47:12.961Z,5.00
2018-09-12T07:49:44.552Z,5.33
2018-09-12T07:52:18.161Z,6.00
2018-09-12T07:54:49.647Z,6.00
2018-09-12T07:57:22.523Z,7.00
2018-09-12T07:59:56.438Z,7.00
2018-09-12T08:02:27.910Z,5.67
2018-09-12T08:04:58.273Z,6.00
2018-09-12T08:07:27.805Z,7.00
2018-09-12T08:10:00.159Z,6.00
2018-09-12T08:12:31.579Z,6.67
2018-09-12T08:15:04.370Z,6.33
2018-09-12T08:17:39.868Z,6.67
2018-09-12T08:20:11.414Z,6.00
2018-09-12T08:22:44.965Z,5.00
2018-09-12T08:25:17.015Z,6.00
2018-09-12T08:27:51.129Z,6.33
2018-09-12T08:30:25.745Z,6.33
2018-09-12T08:32:57.650Z,6.33
2018-09-12T08:35:29.700Z,6.00
2018-09-12T08:38:02.378Z,5.33
2018-09-12T08:40:34.343Z,6.33
2018-09-12T08:43:07.102Z,5.20
2018-09-12T08:45:39.958Z,5.00
2018-09-12T08:48:12.935Z,5.67
2018-09-12T08:50:47.609Z,6.67
2018-09-12T08:53:19.569Z,5.00
2018-09-12T08:55:54.517Z,5.67
2018-09-12T08:58:25.548Z,4.33
2018-09-12T09:00:59.091Z,4.67
2018-09-12T09:03:31.064Z,5.00
2018-09-12T09:06:02.484Z,4.00
2018-09-12T09:08:32.921Z,3.67
2018-09-12T09:11:06.121Z,3.67
2018-09-12T09:13:37.061Z,4.67
2018-09-12T09:16:08.310Z,4.40
2018-09-12T09:18:40.762Z,5.00
2018-09-12T09:21:12.565Z,5.00
2018-09-12T09:23:44.591Z,4.40
2018-09-12T09:26:19.904Z,4.40
2018-09-12T09:28:54.225Z,5.00
2018-09-12T09:34:50.698Z,4.00
2018-09-12T09:37:22.505Z,4.00
2018-09-12T09:39:56.398Z,3.00
2018-09-12T09:42:30.351Z,4.00
2018-09-12T09:45:02.552Z,4.00
2018-09-12T09:47:36.007Z,4.00
2018-09-12T09:50:08.574Z,3.00
2018-09-12T09:52:42.072Z,3.00
2018-09-12T09:55:13.691Z,4.20
2018-09-12T09:57:45.950Z,3.80
2018-09-12T10:00:22.726Z,4.80
2018-09-12T10:02:59.538Z,5.00
2018-09-12T10:05:36.890Z,4.00
2018-09-12T10:08:12.265Z,4.00
2018-09-12T10:10:45.766Z,3.00
2018-09-12T10:13:17.635Z,5.00
2018-09-12T10:15:49.883Z,3.40
2018-09-12T10:18:22.228Z,3.60
2018-09-12T10:20:54.950Z,3.80
2018-09-12T10:23:27.400Z,4.00
2018-09-12T10:28:42.727Z,3.60
2018-09-12T10:31:15.809Z,3.00
2018-09-12T10:33:48.203Z,4.40
2018-09-12T10:36:20.162Z,4.00
2018-09-12T10:38:51.704Z,4.00
2018-09-12T10:41:23.499Z,4.33
2018-09-12T10:43:55.257Z,5.00
2018-09-12T10:46:27.810Z,5.00
2018-09-12T10:49:04.590Z,4.60
2018-09-12T10:51:38.673Z,3.60
2018-09-12T10:54:11.819Z,5.00
2018-09-12T10:56:44.821Z,5.40
2018-09-12T10:59:17.382Z,4.00
2018-09-12T11:01:51.171Z,4.67
2018-09-12T11:04:25.463Z,5.00
2018-09-12T11:06:57.212Z,5.40
2018-09-12T11:09:30.646Z,4.40
2018-09-12T11:12:03.282Z,5.00
2018-09-12T11:14:38.902Z,4.00
2018-09-12T11:17:10.216Z,4.67
2018-09-12T11:19:50.077Z,3.80
2018-09-12T11:22:40.416Z,5.00
2018-09-12T11:25:12.293Z,4.33
2018-09-12T11:27:46.490Z,4.20
2018-09-12T11:30:18.524Z,4.67
2018-09-12T11:32:50.460Z,4.00
2018-09-12T11:35:22.504Z,5.20
2018-09-12T11:37:53.687Z,4.40
2018-09-12T11:40:25.590Z,4.40
2018-09-12T11:42:56.545Z,4.00
2018-09-12T11:45:29.312Z,5.00
2018-09-12T11:48:00.581Z,5.00
2018-09-12T11:50:32.670Z,5.80
2018-09-12T11:53:04.274Z,4.67
2018-09-12T11:55:39.221Z,4.80
2018-09-12T11:58:11.871Z,4.20
2018-09-12T12:00:44.781Z,4.40
2018-09-12T12:03:16.591Z,4.40
2018-09-12T12:05:48.341Z,4.20
2018-09-12T12:08:20.262Z,5.00
2018-09-12T12:10:51.277Z,3.67
2018-09-12T12:13:25.028Z,5.20
2018-09-12T12:15:56.614Z,5.00
2018-09-12T12:18:28.959Z,5.00
2018-09-12T12:21:02.713Z,5.00
2018-09-12T12:23:36.154Z,5.00
2018-09-12T12:26:10.117Z,4.20
2018-09-12T12:28:41.301Z,4.00
2018-09-12T12:31:12.693Z,5.20
2018-09-12T12:33:43.848Z,4.60
2018-09-12T12:36:19.296Z,6.00
2018-09-12T12:38:53.604Z,4.00
2018-09-12T12:41:26.568Z,3.00
2018-09-12T12:44:05.216Z,3.80
2018-09-12T12:46:37.317Z,3.40
2018-09-12T12:49:10.553Z,3.60
2018-09-12T12:51:43.932Z,3.00
2018-09-12T12:54:16.629Z,3.80
2018-09-12T12:56:49.211Z,3.80
2018-09-12T12:59:22.535Z,5.00
2018-09-12T13:01:58.457Z,3.60
2018-09-12T13:04:30.367Z,4.00
2018-09-12T13:07:01.716Z,3.80
2018-09-12T13:10:19.847Z,3.20
2018-09-12T13:13:05.022Z,4.20
2018-09-12T13:15:44.440Z,4.60
2018-09-12T13:18:26.893Z,3.86
2018-09-12T13:21:17.222Z,4.00
2018-09-12T13:24:08.246Z,4.80
2018-09-12T13:26:56.782Z,4.00
2018-09-12T13:29:39.620Z,4.00
2018-09-12T13:32:15.031Z,4.33
2018-09-12T13:34:57.390Z,4.00
2018-09-12T13:37:39.936Z,4.00
2018-09-12T13:40:18.742Z,3.00
2018-09-12T13:42:56.334Z,4.00
2018-09-12T13:45:45.699Z,5.00
2018-09-12T13:48:20.403Z,3.20
2018-09-12T13:50:54.598Z,3.33
2018-09-12T13:53:37.543Z,3.00
2018-09-12T13:56:15.208Z,4.00
2018-09-12T13:58:51.874Z,3.20
2018-09-12T14:01:33.941Z,3.20
2018-09-12T14:04:20.942Z,3.00
2018-09-12T14:07:03.817Z,2.80
2018-09-12T14:09:45.235Z,3.00
2018-09-12T14:12:28.304Z,4.40
2018-09-12T14:15:02.598Z,3.00
2018-09-12T14:17:35.479Z,4.00
2018-09-12T14:20:08.979Z,3.60
2018-09-12T14:22:49.354Z,4.20
2018-09-12T14:25:44.692Z,4.40
2018-09-12T14:28:24.980Z,2.00
2018-09-12T14:31:02.400Z,2.00
2018-09-12T14:33:44.956Z,2.40
2018-09-12T14:39:38.132Z,2.00
2018-09-12T14:42:22.837Z,2.40
2018-09-12T14:45:11.395Z,2.40
2018-09-12T14:47:46.313Z,1.00
2018-09-12T14:50:19.506Z,1.60
2018-09-12T14:52:55.654Z,2.00
2018-09-12T14:55:31.298Z,1.20
2018-09-12T14:58:12.953Z,1.00
2018-09-12T15:00:57.485Z,1.20
2018-09-12T15:03:39.506Z,1.40
2018-09-12T15:06:12.614Z,1.80
2018-09-12T15:08:51.350Z,1.00
2018-09-12T15:11:29.538Z,2.00
2018-09-12T15:14:09.071Z,2.40
2018-09-12T15:16:46.735Z,1.40
2018-09-12T15:19:21.308Z,2.40
2018-09-12T15:21:56.661Z,1.00
2018-09-12T15:27:25.220Z,2.00
2018-09-12T15:30:00.108Z,1.40
2018-09-12T15:32:38.920Z,2.00
2018-09-12T15:35:28.521Z,2.00
2018-09-12T15:38:02.025Z,1.80
2018-09-12T15:40:38.314Z,1.40
2018-09-12T15:43:17.358Z,2.00
2018-09-12T15:46:11.243Z,1.00
2018-09-12T15:49:04.688Z,2.20
2018-09-12T15:51:39.893Z,2.00
2018-09-12T15:54:12.310Z,2.00
2018-09-12T15:57:01.691Z,1.86
2018-09-12T16:01:16.243Z,1.43
2018-09-12T16:03:59.701Z,1.40
2018-09-12T16:06:35.949Z,1.60
2018-09-12T16:09:12.354Z,3.00
2018-09-12T16:11:50.717Z,1.80
2018-09-12T16:14:29.695Z,2.00
2018-09-12T16:17:05.914Z,2.80
2018-09-12T16:19:44.471Z,2.00
2018-09-12T16:22:22.044Z,2.40
2018-09-12T16:24:59.567Z,1.80
2018-09-12T16:27:40.364Z,2.00
2018-09-12T16:30:27.492Z,2.60
2018-09-12T16:33:04.765Z,2.20
2018-09-12T16:36:29.624Z,2.00
2018-09-12T16:39:18.185Z,1.40
2018-09-12T16:42:07.514Z,1.00
2018-09-12T16:44:42.693Z,2.00
2018-09-12T16:47:22.096Z,2.00
2018-09-12T16:50:07.214Z,2.80
2018-09-12T16:52:48.626Z,2.00
2018-09-12T16:55:35.649Z,1.60
2018-09-12T16:58:14.879Z,2.20
2018-09-12T17:01:03.028Z,2.40
2018-09-12T17:03:37.730Z,3.00
2018-09-12T17:06:16.372Z,2.80
2018-09-12T17:08:50.912Z,2.00
2018-09-12T17:11:26.325Z,3.00
2018-09-12T17:14:08.732Z,2.00
2018-09-12T17:16:56.995Z,2.00
2018-09-12T17:19:44.533Z,2.00
2018-09-12T17:22:31.433Z,2.60
2018-09-12T17:25:08.094Z,2.80
2018-09-12T17:27:46.453Z,2.00
2018-09-12T17:30:29.733Z,2.00
2018-09-12T17:33:16.615Z,3.00
2018-09-12T17:36:00.599Z,2.00
2018-09-12T17:38:39.713Z,2.20
2018-09-12T17:41:22.623Z,3.00
2018-09-12T17:44:03.965Z,3.00
2018-09-12T17:46:54.286Z,3.00
2018-09-12T17:49:35.396Z,3.60
2018-09-12T17:52:17.294Z,2.80
2018-09-12T17:54:59.930Z,4.00
2018-09-12T17:57:39.946Z,3.60
2018-09-12T18:03:12.581Z,3.80
2018-09-12T18:05:50.514Z,3.67
2018-09-12T18:08:33.426Z,4.33
2018-09-12T18:11:06.557Z,4.60
2018-09-12T18:13:44.024Z,4.60
2018-09-12T18:16:26.753Z,5.00
2018-09-12T18:19:07.323Z,4.67
2018-09-12T18:21:39.599Z,3.80
2018-09-12T18:24:17.816Z,4.20
2018-09-12T18:26:57.727Z,4.20
2018-09-12T18:29:38.971Z,5.00
2018-09-12T18:32:24.847Z,4.00
2018-09-12T18:35:09.508Z,4.80
2018-09-12T18:37:52.296Z,4.80
2018-09-12T18:40:31.462Z,4.80
2018-09-12T18:43:09.558Z,4.40
2018-09-12T18:46:04.401Z,4.67
2018-09-12T18:48:56.085Z,4.00
2018-09-12T18:51:41.443Z,4.20
2018-09-12T18:54:20.085Z,4.60
2018-09-12T18:57:06.389Z,5.00
2018-09-12T18:59:40.725Z,4.40
2018-09-12T19:02:18.015Z,4.00
2018-09-12T19:04:58.695Z,5.20
2018-09-12T19:07:41.040Z,4.40
2018-09-12T19:10:12.661Z,4.33
2018-09-12T19:12:50.448Z,4.33
2018-09-12T19:15:26.633Z,4.33
2018-09-12T19:18:00.561Z,5.00
2018-09-12T19:20:44.625Z,4.80
2018-09-12T19:23:21.504Z,4.33
2018-09-12T19:26:01.605Z,5.40
2018-09-12T19:28:46.153Z,6.33
2018-09-12T19:31:47.751Z,6.00
2018-09-12T19:34:32.507Z,7.00
2018-09-12T19:38:01.600Z,6.67
2018-09-12T19:41:19.713Z,8.00
2018-09-12T19:43:50.418Z,6.67
2018-09-12T19:46:20.771Z,7.00
2018-09-12T19:48:51.039Z,6.33
2018-09-12T19:51:23.541Z,7.50
2018-09-12T19:53:54.379Z,7.00
2018-09-12T19:56:26.533Z,7.33
2018-09-12T19:59:02.526Z,8.00
2018-09-12T20:01:36.466Z,8.00
2018-09-12T20:04:06.793Z,8.67
2018-09-12T20:06:37.268Z,7.00
2018-09-12T20:09:11.229Z,7.67
2018-09-12T20:11:41.851Z,8.00
2018-09-12T20:14:12.175Z,7.00
2018-09-12T20:16:47.880Z,7.00
2018-09-12T20:19:18.158Z,10.33
2018-09-12T20:21:51.016Z,10.33
2018-09-12T20:24:21.260Z,11.00
2018-09-12T20:26:53.337Z,11.00
2018-09-12T20:29:27.458Z,11.67
2018-09-12T20:31:59.580Z,14.67
2018-09-12T20:34:31.111Z,15.00
2018-09-12T20:37:04.216Z,14.00
2018-09-12T20:39:39.941Z,15.33
2018-09-12T20:42:10.328Z,14.67
2018-09-12T20:44:40.801Z,16.67
2018-09-12T20:47:11.892Z,17.00
2018-09-12T20:49:44.281Z,19.00
2018-09-12T20:52:14.806Z,16.33
2018-09-12T20:54:44.838Z,15.67
2018-09-12T20:57:14.770Z,17.67
2018-09-12T20:59:45.320Z,16.00
2018-09-12T21:02:18.594Z,17.00
2018-09-12T21:04:48.214Z,16.67
2018-09-12T21:07:18.293Z,17.67
2018-09-12T21:09:48.456Z,18.33
2018-09-12T21:12:19.974Z,18.67
2018-09-12T21:14:50.444Z,17.00
2018-09-12T21:17:21.841Z,17.00
2018-09-12T21:19:53.556Z,17.33
2018-09-12T21:22:24.681Z,18.67
2018-09-12T21:24:55.288Z,16.33
2018-09-12T21:27:30.209Z,18.00
2018-09-12T21:30:00.492Z,18.00
2018-09-12T21:32:30.580Z,17.67
2018-09-12T21:35:02.087Z,16.00
2018-09-12T21:37:32.424Z,19.00
2018-09-12T21:40:01.890Z,16.33
2018-09-12T21:42:34.107Z,16.33
2018-09-12T21:45:03.580Z,18.00
2018-09-12T21:47:33.013Z,17.00
2018-09-12T21:50:04.556Z,17.00
2018-09-12T21:52:34.063Z,17.67
2018-09-12T21:55:03.473Z,18.33
2018-09-12T21:57:39.369Z,15.00
2018-09-12T22:00:14.796Z,15.67
2018-09-12T22:02:45.395Z,14.33
2018-09-12T22:05:14.812Z,18.00
2018-09-12T22:07:44.718Z,15.33
2018-09-12T22:10:14.155Z,15.00
2018-09-12T22:12:44.247Z,16.67
2018-09-12T22:15:17.834Z,14.00
2018-09-12T22:17:47.844Z,17.00
2018-09-12T22:20:17.319Z,15.67
2018-09-12T22:22:48.632Z,16.00
2018-09-12T22:25:18.036Z,14.67
2018-09-12T22:27:48.414Z,17.33
2018-09-12T22:30:18.677Z,12.33
2018-09-12T22:32:48.429Z,18.33
2018-09-12T22:35:17.860Z,15.33
2018-09-12T22:37:47.262Z,15.67
2018-09-12T22:40:16.853Z,14.67
2018-09-12T22:42:46.288Z,15.33
2018-09-12T22:45:16.349Z,15.33
2018-09-12T22:47:46.091Z,14.67
2018-09-12T22:50:17.762Z,14.67
2018-09-12T22:52:52.090Z,14.67
2018-09-12T22:55:21.692Z,14.00
2018-09-12T22:57:52.033Z,14.33
2018-09-12T23:00:23.719Z,13.67
2018-09-12T23:02:54.774Z,13.67
2018-09-12T23:05:24.221Z,15.00
2018-09-12T23:07:53.632Z,15.00
2018-09-12T23:10:23.088Z,13.00
2018-09-12T23:12:53.312Z,11.00
2018-09-12T23:15:24.935Z,12.00
2018-09-12T23:17:54.305Z,10.67
2018-09-12T23:20:24.269Z,12.00
2018-09-12T23:22:55.321Z,11.00
2018-09-12T23:25:24.738Z,10.67
2018-09-12T23:27:54.116Z,12.67
2018-09-12T23:30:25.780Z,11.00
2018-09-12T23:32:55.188Z,10.00
2018-09-12T23:35:24.586Z,11.00
2018-09-12T23:37:54.715Z,10.67
2018-09-12T23:40:24.992Z,10.67
2018-09-12T23:42:54.384Z,10.33
2018-09-12T23:45:24.946Z,10.00
2018-09-12T23:47:54.308Z,10.67
2018-09-12T23:50:23.661Z,9.00
2018-09-12T23:52:53.024Z,9.00
2018-09-12T23:55:22.920Z,11.67
2018-09-12T23:57:52.531Z,9.00
